Time;durP1;ratioP1;P1;durP2;ratioP2;P2;SDS_P1;SDS_P2;PMS_P1;PMS_P2;Temp;Humidity;BMP_temperature;BMP_pressure;BME280_temperature;BME280_humidity;BME280_pressure;Samples;Min_cycle;Max_cycle;Signal;HPM_P1;HPM_P2
2022/12/25 00:02:00;;;;;;;;;14.33;14.33;;;;;12.44;100.00;100986.88;5029457;27;45595;-84
2022/12/25 00:04:26;;;;;;;;;14.33;12.00;;;;;12.42;100.00;100982.72;5076721;27;45236;-84
2022/12/25 00:06:54;;;;;;;;;15.00;14.00;;;;;12.41;100.00;100967.72;5079913;27;47127;-83
2022/12/25 00:09:31;;;;;;;;;26.00;23.33;;;;;12.51;100.00;100970.97;5082634;27;45546;-84
2022/12/25 00:11:56;;;;;;;;;17.33;13.33;;;;;12.65;100.00;100990.66;5088992;27;45473;-84
2022/12/25 00:14:21;;;;;;;;;14.00;14.00;;;;;12.40;100.00;100942.09;5080672;28;45121;-86
2022/12/25 00:16:47;;;;;;;;;14.00;13.67;;;;;12.46;100.00;100949.38;5060222;28;47148;-84
2022/12/25 00:19:12;;;;;;;;;14.67;14.67;;;;;12.40;100.00;100939.44;5057541;27;45819;-81
2022/12/25 00:21:37;;;;;;;;;10.33;9.67;;;;;12.40;100.00;100944.75;5070897;28;45349;-79
2022/12/25 00:24:03;;;;;;;;;14.33;13.33;;;;;12.42;100.00;100940.91;5086262;27;45588;-80
2022/12/25 00:26:28;;;;;;;;;13.00;13.00;;;;;12.68;100.00;100973.47;5085777;27;45483;-81
2022/12/25 00:28:56;;;;;;;;;14.67;14.00;;;;;12.62;100.00;100956.38;5083765;27;46073;-83
2022/12/25 00:31:22;;;;;;;;;16.67;14.00;;;;;12.35;100.00;100922.16;5063650;28;45619;-83
2022/12/25 00:33:52;;;;;;;;;15.00;13.33;;;;;12.58;100.00;100952.41;5047575;28;46186;-83
2022/12/25 00:36:25;;;;;;;;;14.00;12.00;;;;;12.59;100.00;100951.41;5056359;28;47163;-82
2022/12/25 00:39:01;;;;;;;;;13.00;12.00;;;;;12.28;100.00;100894.56;5057290;28;45487;-83
2022/12/25 00:44:22;;;;;;;;;13.67;13.00;;;;;12.28;100.00;100891.91;5075167;28;45371;-83
2022/12/25 00:46:48;;;;;;;;;14.67;14.67;;;;;12.42;100.00;100910.78;5078372;28;47239;-86
2022/12/25 00:49:29;;;;;;;;;15.00;14.00;;;;;12.48;100.00;100928.69;5072543;28;45926;-86
2022/12/25 00:52:10;;;;;;;;;17.00;16.00;;;;;12.81;100.00;100986.19;5057151;28;45426;-86
2022/12/25 00:54:39;;;;;;;;;15.33;14.33;;;;;12.66;100.00;100967.50;5061893;28;45950;-85
2022/12/25 00:57:12;;;;;;;;;15.33;14.00;;;;;12.32;100.00;100911.00;5068122;28;46521;-85
2022/12/25 01:00:05;;;;;;;;;18.00;15.67;;;;;12.53;100.00;100936.97;5066471;28;45851;-85
2022/12/25 01:02:42;;;;;;;;;17.00;15.00;;;;;12.84;100.00;100983.97;5069873;28;45320;-86
2022/12/25 01:05:08;;;;;;;;;12.67;12.67;;;;;12.49;100.00;100922.34;5068232;28;47385;-86
2022/12/25 01:07:50;;;;;;;;;16.33;15.00;;;;;12.37;100.00;100892.66;5063901;28;47650;-86
2022/12/25 01:10:23;;;;;;;;;17.33;16.67;;;;;12.47;100.00;100906.53;5056385;28;45375;-86
2022/12/25 01:13:03;;;;;;;;;12.33;12.33;;;;;12.74;100.00;100932.75;5085135;27;45496;-85
2022/12/25 01:15:35;;;;;;;;;16.00;16.00;;;;;12.45;100.00;100891.75;5081973;28;46175;-87
2022/12/25 01:18:02;;;;;;;;;14.67;14.33;;;;;12.37;100.00;100876.66;5083800;27;48060;-86
2022/12/25 01:20:42;;;;;;;;;13.00;13.00;;;;;12.50;100.00;100900.00;5090934;27;45394;-85
2022/12/25 01:23:12;;;;;;;;;13.33;13.33;;;;;12.48;100.00;100889.53;5094702;27;45718;-85
2022/12/25 01:25:38;;;;;;;;;18.33;17.67;;;;;12.54;100.00;100903.94;5100964;27;45926;-85
2022/12/25 01:28:17;;;;;;;;;13.33;12.67;;;;;12.40;100.00;100884.28;5114762;27;47036;-86
2022/12/25 01:30:52;;;;;;;;;12.00;12.00;;;;;12.90;100.00;100961.06;5090642;27;45317;-86
2022/12/25 01:33:27;;;;;;;;;13.00;13.00;;;;;12.45;100.00;100883.75;5080011;28;45251;-86
2022/12/25 01:35:57;;;;;;;;;14.00;12.67;;;;;12.63;100.00;100910.84;5093224;27;47015;-85
2022/12/25 01:38:34;;;;;;;;;13.00;11.33;;;;;12.48;100.00;100878.06;5094242;27;46639;-86
2022/12/25 01:41:11;;;;;;;;;13.67;13.67;;;;;12.44;100.00;100868.75;5081963;27;45442;-86
2022/12/25 01:44:00;;;;;;;;;12.67;11.67;;;;;12.92;100.00;100951.03;5080186;27;45496;-86
2022/12/25 01:46:32;;;;;;;;;12.00;12.00;;;;;12.46;100.00;100890.72;5085921;28;45573;-86
2022/12/25 01:49:10;;;;;;;;;13.67;12.00;;;;;12.75;100.00;100951.22;5085923;27;45463;-86
2022/12/25 01:51:52;;;;;;;;;13.00;12.67;;;;;12.87;100.00;100966.78;5088168;27;45322;-86
2022/12/25 01:54:40;;;;;;;;;13.00;11.67;;;;;12.52;100.00;100914.00;5071747;28;45232;-86
2022/12/25 01:57:20;;;;;;;;;0.00;0.00;;;;;12.69;100.00;100943.16;5085099;27;46106;-86
2022/12/25 02:00:06;;;;;;;;;9.00;9.00;;;;;12.73;100.00;100941.75;5087396;27;47136;-86
2022/12/25 02:02:36;;;;;;;;;14.33;10.67;;;;;12.60;100.00;100905.88;5059122;28;45572;-86
2022/12/25 02:05:08;;;;;;;;;9.67;8.00;;;;;12.77;100.00;100936.88;5044102;28;45532;-86
2022/12/25 02:07:41;;;;;;;;;7.67;7.67;;;;;12.76;100.00;100930.72;5035942;28;46626;-85
2022/12/25 02:10:26;;;;;;;;;11.33;9.67;;;;;12.94;100.00;100954.38;5036299;28;45578;-86
2022/12/25 02:12:57;;;;;;;;;12.00;12.00;;;;;12.79;100.00;100924.19;5017281;28;45363;-86
2022/12/25 02:16:00;;;;;;;;;7.00;7.00;;;;;12.81;100.00;100916.84;5023041;28;45414;-87
2022/12/25 02:18:56;;;;;;;;;11.67;11.67;;;;;13.03;100.00;100946.25;5026150;28;45741;-86
2022/12/25 02:21:47;;;;;;;;;10.33;10.00;;;;;13.12;100.00;100964.66;5024895;28;46069;-86
2022/12/25 02:24:41;;;;;;;;;11.67;10.00;;;;;13.12;100.00;100969.16;5022287;28;45365;-86
2022/12/25 02:27:55;;;;;;;;;11.67;10.67;;;;;12.63;100.00;100891.34;5032304;28;45276;-86
2022/12/25 02:30:30;;;;;;;;;15.00;15.00;;;;;12.70;100.00;100889.63;5031556;28;45415;-86
2022/12/25 02:36:32;;;;;;;;;15.33;12.33;;;;;12.73;100.00;100894.59;5085246;28;45386;-86
2022/12/25 02:42:03;;;;;;;;;13.33;13.33;;;;;12.63;100.00;100870.88;5077088;28;45402;-86
2022/12/25 03:07:34;;;;;;;;;11.00;11.00;;;;;12.82;100.00;100879.31;5071902;28;45863;-86
2022/12/25 03:13:09;;;;;;;;;13.00;13.00;;;;;12.93;100.00;100896.66;5073811;28;45221;-86
2022/12/25 03:18:46;;;;;;;;;19.33;17.00;;;;;12.72;100.00;100858.25;5081606;28;45192;-86
2022/12/25 03:26:58;;;;;;;;;15.33;15.33;;;;;12.87;100.00;100874.25;5076652;28;45292;-86
2022/12/25 03:32:34;;;;;;;;;14.67;13.33;;;;;12.93;100.00;100875.34;5074479;28;45220;-86
2022/12/25 03:35:24;;;;;;;;;20.33;19.33;;;;;12.93;100.00;100878.00;5068670;28;45376;-86
2022/12/25 04:38:32;;;;;;;;;14.00;12.00;;;;;12.92;100.00;100779.47;5089838;28;45424;-86
2022/12/25 04:41:13;;;;;;;;;12.33;11.33;;;;;12.92;100.00;100785.66;5070598;28;45569;-85
2022/12/25 04:43:49;;;;;;;;;11.00;9.67;;;;;12.86;100.00;100776.56;5075759;28;45216;-86
2022/12/25 04:46:27;;;;;;;;;13.33;11.00;;;;;12.85;100.00;100780.25;5068830;28;45308;-86
2022/12/25 04:48:53;;;;;;;;;10.67;10.67;;;;;12.84;100.00;100761.78;5070673;28;46532;-86
2022/12/25 04:51:59;;;;;;;;;11.00;11.00;;;;;12.93;100.00;100781.97;5058138;28;45448;-86
2022/12/25 04:54:50;;;;;;;;;10.00;10.00;;;;;13.10;100.00;100819.91;5069941;28;45379;-86
2022/12/25 04:57:20;;;;;;;;;10.00;10.00;;;;;12.68;100.00;100747.66;5073363;28;46255;-86
2022/12/25 04:59:57;;;;;;;;;8.33;8.00;;;;;12.65;100.00;100749.84;5069874;28;47848;-86
2022/12/25 05:02:22;;;;;;;;;9.67;9.67;;;;;12.82;100.00;100788.63;5079444;28;45494;-85
2022/12/25 05:04:51;;;;;;;;;10.67;10.67;;;;;12.65;100.00;100756.03;5059668;28;45304;-86
2022/12/25 05:07:21;;;;;;;;;12.67;12.00;;;;;12.61;100.00;100747.56;5074623;28;46498;-86
2022/12/25 05:09:57;;;;;;;;;;;;;;;;;;;;;
2022/12/25 05:12:23;;;;;;;;;10.00;8.00;;;;;12.83;100.00;100781.44;5080158;27;72868;-86
2022/12/25 05:14:50;;;;;;;;;10.00;10.00;;;;;12.84;100.00;100777.78;5068897;28;45395;-86
2022/12/25 05:17:26;;;;;;;;;;;;;;;;;;;;;
2022/12/25 05:20:01;;;;;;;;;11.33;10.33;;;;;12.85;100.00;100728.75;5086669;28;74344;-86
2022/12/25 05:22:32;;;;;;;;;8.00;8.00;;;;;12.60;100.00;100681.13;5066085;28;45351;-86
2022/12/25 05:25:00;;;;;;;;;13.00;12.33;;;;;12.73;100.00;100691.94;5073087;28;45354;-86
2022/12/25 05:27:26;;;;;;;;;13.00;10.33;;;;;12.77;100.00;100696.84;5052594;28;45509;-86
2022/12/25 05:29:58;;;;;;;;;12.33;9.00;;;;;12.55;100.00;100678.19;5065172;28;45685;-86
2022/12/25 05:32:37;;;;;;;;;10.67;8.00;;;;;12.72;100.00;100716.91;5067987;28;45309;-86
2022/12/25 05:35:11;;;;;;;;;9.00;9.00;;;;;12.78;100.00;100726.00;5087625;28;45419;-85
2022/12/25 05:37:56;;;;;;;;;10.33;9.33;;;;;12.64;100.00;100714.38;5070922;28;45964;-86
2022/12/25 05:40:50;;;;;;;;;10.33;9.00;;;;;12.95;100.00;100763.09;5068120;28;46244;-86
2022/12/25 05:43:22;;;;;;;;;9.33;9.33;;;;;12.70;100.00;100702.13;5057375;28;45398;-85
2022/12/25 05:45:53;;;;;;;;;10.00;8.00;;;;;12.65;100.00;100689.38;5064000;28;45581;-86
2022/12/25 05:48:36;;;;;;;;;11.00;10.33;;;;;12.82;100.00;100703.28;5062809;28;46294;-87
2022/12/25 05:51:36;;;;;;;;;11.00;11.00;;;;;12.80;100.00;100707.97;5046371;28;45595;-86
2022/12/25 05:54:01;;;;;;;;;10.33;10.00;;;;;12.97;100.00;100745.09;5046912;28;45874;-86
2022/12/25 05:56:26;;;;;;;;;12.00;10.33;;;;;12.72;100.00;100711.59;5079056;28;45504;-86
2022/12/25 05:58:52;;;;;;;;;11.00;10.00;;;;;12.74;100.00;100724.72;5059172;28;46069;-86
2022/12/25 06:01:23;;;;;;;;;10.67;10.67;;;;;12.90;100.00;100761.00;5081248;28;45369;-86
2022/12/25 06:03:48;;;;;;;;;8.67;8.67;;;;;12.84;100.00;100751.91;5066028;28;45405;-85
2022/12/25 06:06:16;;;;;;;;;11.33;10.33;;;;;12.73;100.00;100744.44;5061727;28;45374;-85
2022/12/25 06:08:42;;;;;;;;;9.00;9.00;;;;;12.65;100.00;100731.19;5080065;28;45390;-86
2022/12/25 06:11:09;;;;;;;;;9.00;9.00;;;;;12.64;100.00;100717.06;5076593;27;47019;-86
2022/12/25 06:13:38;;;;;;;;;9.00;9.00;;;;;12.62;100.00;100711.06;5076276;28;45274;-85
2022/12/25 06:16:06;;;;;;;;;10.00;10.00;;;;;12.60;100.00;100697.13;5086867;27;45401;-85
2022/12/25 06:18:35;;;;;;;;;9.67;9.67;;;;;12.67;100.00;100707.84;5084133;28;47089;-84
2022/12/25 06:21:05;;;;;;;;;9.00;9.00;;;;;12.53;100.00;100685.53;5100006;27;45697;-85
2022/12/25 06:23:30;;;;;;;;;12.33;11.33;;;;;12.63;100.00;100697.56;5089492;27;45904;-84
2022/12/25 06:25:56;;;;;;;;;9.67;8.00;;;;;12.71;100.00;100720.63;5082310;28;45448;-84
2022/12/25 06:28:21;;;;;;;;;9.00;9.00;;;;;12.60;100.00;100681.13;5092104;27;47294;-84
2022/12/25 06:30:52;;;;;;;;;11.33;10.33;;;;;12.53;100.00;100666.88;5091480;27;45487;-81
2022/12/25 06:33:30;;;;;;;;;9.33;8.67;;;;;12.54;100.00;100679.22;5085117;28;45526;-81
2022/12/25 06:35:56;;;;;;;;;11.00;10.00;;;;;12.52;100.00;100667.91;5097674;27;45420;-81
2022/12/25 06:38:27;;;;;;;;;11.67;11.00;;;;;12.70;100.00;100702.13;5079857;27;45533;-81
2022/12/25 06:41:09;;;;;;;;;8.00;8.00;;;;;12.67;100.00;100691.84;5107235;27;46236;-81
2022/12/25 06:43:49;;;;;;;;;11.00;10.00;;;;;12.92;100.00;100742.97;5075864;28;45470;-82
2022/12/25 06:46:29;;;;;;;;;10.00;10.00;;;;;12.46;100.00;100670.31;5085056;27;45651;-80
2022/12/25 06:49:05;;;;;;;;;14.00;12.67;;;;;12.50;100.00;100684.91;5085652;27;46439;-80
2022/12/25 06:51:35;;;;;;;;;10.67;9.00;;;;;12.46;100.00;100683.66;5083081;27;48508;-80
2022/12/25 06:54:03;;;;;;;;;10.00;10.00;;;;;12.66;100.00;100707.00;5088832;27;45492;-80
2022/12/25 06:56:33;;;;;;;;;10.00;9.67;;;;;12.44;100.00;100669.66;5096702;27;45203;-81
2022/12/25 06:59:00;;;;;;;;;8.00;8.00;;;;;12.59;100.00;100701.63;5086235;27;46021;-80
2022/12/25 07:01:57;;;;;;;;;11.67;11.67;;;;;12.36;100.00;100675.09;5103964;27;45385;-80
2022/12/25 07:04:22;;;;;;;;;14.00;11.00;;;;;12.67;100.00;100740.69;5074086;27;45326;-79
2022/12/25 07:06:47;;;;;;;;;12.00;11.00;;;;;12.29;100.00;100684.88;5099697;27;45271;-79
2022/12/25 07:09:13;;;;;;;;;11.00;10.33;;;;;12.60;100.00;100745.91;5081246;27;46150;-79
2022/12/25 07:11:38;;;;;;;;;8.67;8.00;;;;;12.47;100.00;100724.44;5099264;27;45534;-79
2022/12/25 07:14:03;;;;;;;;;13.00;11.00;;;;;12.54;100.00;100733.34;5082233;27;45417;-80
2022/12/25 07:16:29;;;;;;;;;10.00;10.00;;;;;12.54;100.00;100736.00;5102234;27;45272;-81
2022/12/25 07:18:54;;;;;;;;;10.67;9.67;;;;;12.43;100.00;100720.50;5099779;27;45228;-81
2022/12/25 07:21:20;;;;;;;;;13.00;10.67;;;;;12.39;100.00;100729.88;5080736;27;47248;-80
2022/12/25 07:23:47;;;;;;;;;12.00;10.33;;;;;12.43;100.00;100734.66;5089282;27;45315;-81
2022/12/25 07:26:16;;;;;;;;;9.00;9.00;;;;;12.43;100.00;100739.16;5092965;27;45413;-82
2022/12/25 07:28:41;;;;;;;;;10.33;10.33;;;;;12.30;100.00;100726.50;5079423;27;45356;-84
2022/12/25 07:31:15;;;;;;;;;10.00;10.00;;;;;12.24;100.00;100707.56;5098317;27;45599;-83
2022/12/25 07:33:41;;;;;;;;;10.67;9.00;;;;;12.20;100.00;100692.97;5101347;27;45332;-82
2022/12/25 07:36:06;;;;;;;;;11.33;11.33;;;;;11.93;100.00;100652.66;5100846;27;45390;-82
2022/12/25 07:38:32;;;;;;;;;6.00;6.00;;;;;12.11;100.00;100678.09;5081730;27;47180;-81
2022/12/25 07:40:57;;;;;;;;;11.00;10.67;;;;;12.08;100.00;100673.13;5100466;27;45862;-80
2022/12/25 07:43:23;;;;;;;;;9.33;9.33;;;;;12.03;100.00;100675.53;5099258;27;45587;-79
2022/12/25 07:45:58;;;;;;;;;12.00;10.00;;;;;11.91;100.00;100660.00;5080715;27;45322;-80
2022/12/25 07:48:25;;;;;;;;;10.67;10.33;;;;;11.84;100.00;100665.25;5085900;27;45280;-79
2022/12/25 07:51:05;;;;;;;;;12.67;11.67;;;;;11.81;100.00;100662.13;5079653;27;47454;-79
2022/12/25 07:53:31;;;;;;;;;11.00;9.00;;;;;11.71;100.00;100652.56;5086298;27;45376;-79
2022/12/25 07:56:03;;;;;;;;;10.67;10.33;;;;;11.73;100.00;100653.22;5082040;27;45354;-80
2022/12/25 07:58:29;;;;;;;;;10.33;10.00;;;;;11.69;100.00;100648.44;5080931;27;47498;-80
2022/12/25 08:01:00;;;;;;;;;9.67;9.67;;;;;11.72;100.00;100658.72;5103505;27;45320;-79
2022/12/25 08:03:25;;;;;;;;;7.33;7.33;;;;;11.65;100.00;100663.97;5106179;27;45140;-79
2022/12/25 08:05:50;;;;;;;;;11.00;11.00;;;;;11.56;100.00;100652.59;5107967;27;45553;-79
2022/12/25 08:08:16;;;;;;;;;11.00;8.67;;;;;11.59;100.00;100656.72;5100101;27;45210;-79
2022/12/25 08:10:47;;;;;;;;;12.33;11.33;;;;;11.56;100.00;100649.94;5091499;27;48311;-84
2022/12/25 08:13:13;;;;;;;;;9.33;8.67;;;;;11.48;100.00;100644.66;5083736;27;45292;-84
2022/12/25 08:15:49;;;;;;;;;11.33;10.33;;;;;11.70;100.00;100687.38;5095285;27;45513;-83
2022/12/25 08:18:23;;;;;;;;;12.67;11.00;;;;;11.37;100.00;100643.28;5087658;27;46726;-84
2022/12/25 08:20:53;;;;;;;;;12.00;9.33;;;;;11.49;100.00;100652.47;5081422;27;46631;-84
2022/12/25 08:23:43;;;;;;;;;10.67;9.67;;;;;11.60;100.00;100666.34;5083456;27;45499;-84
2022/12/25 08:26:25;;;;;;;;;11.67;11.67;;;;;11.54;100.00;100646.59;5079693;27;45392;-84
2022/12/25 08:29:00;;;;;;;;;12.33;12.33;;;;;11.35;100.00;100622.16;5077297;27;47050;-84
2022/12/25 08:31:48;;;;;;;;;13.00;10.67;;;;;11.45;100.00;100621.09;5070863;27;45781;-85
2022/12/25 08:34:14;;;;;;;;;9.00;9.00;;;;;11.61;100.00;100662.66;5081580;27;45349;-85
2022/12/25 08:36:40;;;;;;;;;14.33;12.00;;;;;11.66;100.00;100680.75;5072733;28;45516;-83
2022/12/25 08:39:06;;;;;;;;;10.67;9.67;;;;;11.55;100.00;100658.09;5086481;27;45560;-83
2022/12/25 08:44:43;;;;;;;;;10.33;9.00;;;;;11.61;100.00;100667.97;5091434;27;45646;-82
2022/12/25 08:47:38;;;;;;;;;11.00;10.67;;;;;11.60;100.00;100656.53;5082474;27;46295;-83
2022/12/25 08:50:12;;;;;;;;;8.00;7.67;;;;;11.43;100.00;100615.13;5082670;27;45372;-85
2022/12/25 08:52:37;;;;;;;;;11.67;9.33;;;;;11.50;100.00;100613.38;5066682;28;47923;-80
2022/12/25 08:55:03;;;;;;;;;10.00;9.33;;;;;11.66;100.00;100633.66;5082024;27;45130;-81
2022/12/25 08:57:29;;;;;;;;;12.67;9.00;;;;;11.78;100.00;100649.16;5101554;27;45280;-81
2022/12/25 08:59:54;;;;;;;;;10.67;10.67;;;;;11.90;100.00;100660.16;5096198;27;45598;-84
2022/12/25 09:02:20;;;;;;;;;11.67;11.00;;;;;11.99;100.00;100669.72;5063498;28;48131;-84
2022/12/25 09:04:45;;;;;;;;;12.00;10.00;;;;;11.76;100.00;100644.03;5093659;27;45305;-85
2022/12/25 09:08:15;;;;;;;;;;;;;;;;;;;;;
2022/12/25 09:14:02;;;;;;;;;9.00;9.00;;;;;11.85;100.00;100634.09;5105883;27;45679;-82
2022/12/25 09:26:21;;;;;;;;;9.00;9.00;;;;;11.84;100.00;100633.28;5016703;28;45360;-82
2022/12/25 09:28:47;;;;;;;;;9.67;9.00;;;;;12.07;100.00;100663.50;5017629;28;45304;-83
2022/12/25 09:31:12;;;;;;;;;11.00;10.33;;;;;12.11;100.00;100691.41;5074038;27;45440;-83
2022/12/25 09:33:37;;;;;;;;;10.67;10.67;;;;;12.22;100.00;100704.25;5078870;28;46426;-82
2022/12/25 09:36:06;;;;;;;;;11.00;8.00;;;;;12.16;100.00;100658.91;5080249;27;46317;-83
2022/12/25 09:38:32;;;;;;;;;9.33;9.33;;;;;12.25;100.00;100673.75;5081381;27;45473;-82
2022/12/25 09:41:11;;;;;;;;;10.33;10.33;;;;;12.10;100.00;100653.28;5080111;27;45340;-84
2022/12/25 09:43:42;;;;;;;;;11.33;11.00;;;;;12.19;100.00;100658.53;5076208;27;46733;-84
2022/12/25 09:46:15;;;;;;;;;10.00;10.00;;;;;11.96;100.00;100628.31;5081807;27;45858;-83
2022/12/25 09:52:43;;;;;;;;;8.67;8.00;;;;;12.16;100.00;100630.44;5055181;27;45710;-81
2022/12/25 09:58:27;;;;;;;;;11.67;11.00;;;;;12.14;100.00;100618.28;5088099;27;46404;-81
2022/12/25 10:01:13;;;;;;;;;;;;;;;;;;;;;
2022/12/25 10:04:18;;;;;;;;;11.00;10.00;;;;;12.57;100.00;100668.16;5098221;27;68860;-80
2022/12/25 10:07:15;;;;;;;;;10.00;10.00;;;;;12.40;100.00;100633.75;5076851;27;45708;-78
2022/12/25 10:13:44;;;;;;;;;10.33;10.00;;;;;12.67;100.00;100686.50;5076846;27;45431;-81
2022/12/25 10:16:51;;;;;;;;;10.00;9.00;;;;;12.54;100.00;100673.88;5076688;28;45456;-79
2022/12/25 10:20:02;;;;;;;;;12.33;10.33;;;;;12.71;100.00;100693.09;5098584;27;45321;-79
2022/12/25 10:22:44;;;;;;;;;8.00;7.33;;;;;12.37;100.00;100623.47;5095125;27;45621;-79
2022/12/25 10:25:40;;;;;;;;;11.67;9.67;;;;;12.38;100.00;100619.78;5076733;27;45498;-80
2022/12/25 10:28:26;;;;;;;;;11.00;10.33;;;;;12.55;100.00;100636.38;5088798;27;45448;-79
2022/12/25 10:34:12;;;;;;;;;11.00;10.00;;;;;12.45;100.00;100594.00;5089265;27;46237;-79
2022/12/25 10:36:45;;;;;;;;;9.67;7.67;;;;;12.72;100.00;100622.78;5078266;27;45486;-79
2022/12/25 10:39:38;;;;;;;;;;;;;;;;;;;;;
2022/12/25 10:45:20;;;;;;;;;10.67;9.33;;;;;12.97;100.00;100643.72;5053287;27;45559;-79
2022/12/25 10:47:46;;;;;;;;;10.33;10.33;;;;;12.96;100.00;100650.06;5099400;27;45478;-80
2022/12/25 10:50:24;;;;;;;;;9.00;8.00;;;;;12.86;100.00;100637.03;5078696;27;45544;-79
2022/12/25 10:53:04;;;;;;;;;10.67;8.67;;;;;13.23;100.00;100668.97;5099002;27;45452;-79
2022/12/25 10:55:31;;;;;;;;;9.00;9.00;;;;;13.25;100.00;100658.91;5099156;27;45463;-79
2022/12/25 10:57:57;;;;;;;;;8.00;8.00;;;;;13.34;100.00;100664.91;5098910;27;45390;-80
2022/12/25 11:00:26;;;;;;;;;11.33;11.33;;;;;13.36;100.00;100653.03;5099442;27;45449;-81
2022/12/25 11:02:52;;;;;;;;;10.33;9.00;;;;;13.33;100.00;100650.75;5077218;27;46041;-80
2022/12/25 11:05:27;;;;;;;;;8.33;8.33;;;;;13.36;100.00;100654.88;5099507;27;46200;-81
2022/12/25 11:07:54;;;;;;;;;7.67;7.67;;;;;13.37;100.00;100641.34;5099209;27;45379;-81
2022/12/25 11:10:31;;;;;;;;;7.33;7.33;;;;;13.42;100.00;100619.41;5081317;27;45297;-80
2022/12/25 11:12:59;;;;;;;;;10.00;9.67;;;;;13.10;100.00;100560.28;5080986;27;47477;-81
2022/12/25 11:15:30;;;;;;;;;8.33;8.33;;;;;13.42;100.00;100608.72;5099271;27;46496;-80
2022/12/25 11:17:56;;;;;;;;;10.67;10.67;;;;;13.42;100.00;100626.56;5081007;27;46031;-80
2022/12/25 11:20:22;;;;;;;;;8.67;8.67;;;;;13.49;100.00;100630.97;5098738;27;45240;-82
2022/12/25 11:22:49;;;;;;;;;9.67;9.67;;;;;13.53;100.00;100634.06;5099165;27;45499;-80
2022/12/25 11:25:22;;;;;;;;;7.33;7.33;;;;;13.49;100.00;100622.09;5098837;27;45547;-81
2022/12/25 11:28:01;;;;;;;;;6.00;6.00;;;;;13.59;100.00;100643.94;5080821;27;45717;-79
2022/12/25 11:30:32;;;;;;;;;8.00;8.00;;;;;13.52;100.00;100634.28;5080810;27;45347;-79
2022/12/25 11:33:03;;;;;;;;;9.33;9.00;;;;;13.54;100.00;100637.56;5099123;27;45464;-79
2022/12/25 11:35:49;;;;;;;;;9.33;9.33;;;;;13.62;100.00;100646.22;5099799;27;46461;-78
2022/12/25 11:38:14;;;;;;;;;9.33;9.33;;;;;13.60;100.00;100648.28;5102615;27;45436;-79
2022/12/25 11:40:45;;;;;;;;;10.00;9.00;;;;;13.59;100.00;100659.97;5102760;27;45401;-80
2022/12/25 11:43:24;;;;;;;;;8.67;8.67;;;;;13.59;100.00;100659.16;5102227;27;45377;-78
2022/12/25 11:45:58;;;;;;;;;9.67;9.00;;;;;13.60;100.00;100660.81;5102099;27;46509;-78
2022/12/25 11:48:30;;;;;;;;;7.67;7.67;;;;;13.52;100.00;100648.44;5083768;27;45329;-79
2022/12/25 11:51:01;;;;;;;;;9.33;9.00;;;;;13.58;100.00;100668.19;5083782;27;45835;-80
2022/12/25 11:53:43;;;;;;;;;12.33;9.00;;;;;13.47;100.00;100653.53;5101962;27;45210;-79
2022/12/25 11:56:29;;;;;;;;;6.00;6.00;;;;;13.52;100.00;100666.31;5102049;27;45356;-78
2022/12/25 11:59:10;;;;;;;;;8.00;8.00;;;;;13.43;100.00;100649.56;5083601;27;45431;-80
2022/12/25 12:01:51;;;;;;;;;9.67;8.67;;;;;13.56;100.00;100679.06;5102185;27;45496;-79
2022/12/25 12:04:26;;;;;;;;;11.67;11.33;;;;;13.55;100.00;100676.59;5083456;27;47240;-80
2022/12/25 12:07:02;;;;;;;;;10.00;9.33;;;;;13.57;100.00;100677.22;5093597;27;46225;-79
2022/12/25 12:09:30;;;;;;;;;9.67;9.33;;;;;13.59;100.00;100667.97;5100138;27;45536;-79
2022/12/25 12:12:20;;;;;;;;;9.00;7.33;;;;;13.57;100.00;100669.22;5077359;28;45464;-80
2022/12/25 12:15:05;;;;;;;;;8.67;8.67;;;;;13.57;100.00;100675.38;5100556;27;45221;-86
2022/12/25 12:17:31;;;;;;;;;11.67;10.33;;;;;13.48;100.00;100641.81;5102081;27;45963;-86
2022/12/25 12:19:57;;;;;;;;;8.33;8.33;;;;;13.45;100.00;100640.38;5076112;27;45574;-86
2022/12/25 12:22:34;;;;;;;;;9.33;9.33;;;;;13.59;100.00;100651.16;5090727;27;45488;-85
2022/12/25 12:25:05;;;;;;;;;10.00;9.33;;;;;13.51;100.00;100633.44;5099428;27;45365;-85
2022/12/25 12:27:36;;;;;;;;;9.67;8.33;;;;;13.55;100.00;100632.03;5104529;27;47429;-84
2022/12/25 12:30:03;;;;;;;;;7.67;7.67;;;;;13.59;100.00;100627.94;5098759;27;45550;-85
2022/12/25 12:32:36;;;;;;;;;7.00;7.00;;;;;13.57;100.00;100613.97;5101589;27;45628;-83
2022/12/25 12:35:37;;;;;;;;;9.67;8.67;;;;;13.50;100.00;100602.44;5096354;27;46029;-85
2022/12/25 12:38:13;;;;;;;;;10.00;10.00;;;;;13.49;100.00;100588.25;5098000;27;46314;-84
2022/12/25 12:40:53;;;;;;;;;8.67;8.33;;;;;13.47;100.00;100592.91;5081880;27;45904;-84
2022/12/25 12:43:33;;;;;;;;;10.33;9.33;;;;;13.54;100.00;100600.19;5102361;27;45444;-84
2022/12/25 12:46:20;;;;;;;;;8.33;8.33;;;;;13.54;100.00;100606.34;5100516;27;45722;-86
2022/12/25 12:48:51;;;;;;;;;8.00;8.00;;;;;13.49;100.00;100603.41;5077277;27;47511;-86
2022/12/25 12:51:33;;;;;;;;;9.00;9.00;;;;;13.57;100.00;100613.13;5096948;27;46395;-86
2022/12/25 12:54:19;;;;;;;;;8.00;7.33;;;;;13.49;100.00;100582.91;5101454;27;45294;-86
2022/12/25 12:57:03;;;;;;;;;9.00;9.00;;;;;13.58;100.00;100594.25;5099032;27;45257;-85
2022/12/25 12:59:38;;;;;;;;;8.00;6.00;;;;;13.45;100.00;100589.66;5098353;27;46411;-86
2022/12/25 13:02:16;;;;;;;;;8.33;8.00;;;;;13.66;100.00;100611.97;5100486;27;45469;-85
2022/12/25 13:04:53;;;;;;;;;9.00;9.00;;;;;13.65;100.00;100602.31;5092526;27;45477;-87
2022/12/25 13:08:17;;;;;;;;;;;;;;;;;;;;;
2022/12/25 13:10:50;;;;;;;;;10.00;9.00;;;;;13.73;100.00;100591.44;5082574;27;75082;-88
2022/12/25 13:13:44;;;;;;;;;9.00;9.00;;;;;13.92;100.00;100599.72;5095231;27;45309;-88
2022/12/25 13:16:51;;;;;;;;;9.67;8.67;;;;;13.79;100.00;100565.78;5073201;27;45260;-87
2022/12/25 13:19:26;;;;;;;;;8.33;6.67;;;;;13.84;100.00;100551.81;4968596;28;47182;-86
2022/12/25 13:22:04;;;;;;;;;11.00;10.00;;;;;13.89;100.00;100544.03;4994174;28;47413;-84
2022/12/25 13:24:32;;;;;;;;;12.00;11.33;;;;;13.87;100.00;100554.09;5029927;27;45913;-86
2022/12/25 13:27:23;;;;;;;;;9.67;9.00;;;;;14.33;100.00;100608.69;5081032;27;45398;-87
2022/12/25 13:29:53;;;;;;;;;8.00;7.00;;;;;13.98;100.00;100525.97;5081349;27;46179;-87
2022/12/25 13:32:28;;;;;;;;;11.00;9.33;;;;;14.11;100.00;100543.88;5099405;27;47079;-86
2022/12/25 13:35:02;;;;;;;;;10.33;9.33;;;;;14.55;100.00;100605.84;5074687;27;45371;-84
2022/12/25 13:37:30;;;;;;;;;7.33;7.33;;;;;14.44;100.00;100577.88;5082387;27;45251;-85
2022/12/25 13:40:02;;;;;;;;;10.00;9.33;;;;;14.41;100.00;100559.56;5081655;27;46337;-87
2022/12/25 13:42:46;;;;;;;;;8.00;7.67;;;;;14.42;100.00;100539.81;5078725;27;48088;-86
2022/12/25 13:45:20;;;;;;;;;9.67;9.67;;;;;14.73;100.00;100578.47;5094959;27;45595;-85
2022/12/25 13:48:35;;;;;;;;;10.33;10.00;;;;;14.92;100.00;100589.44;5099280;27;45317;-85
2022/12/25 13:51:01;;;;;;;;;9.67;9.00;;;;;14.53;100.00;100530.34;5054470;28;45821;-88
2022/12/25 13:53:26;;;;;;;;;10.33;9.33;;;;;14.79;100.00;100566.19;5084082;27;45442;-87
2022/12/25 13:55:54;;;;;;;;;9.00;9.00;;;;;14.92;100.00;100588.59;5082734;27;45327;-88
2022/12/25 13:58:24;;;;;;;;;8.00;8.00;;;;;14.75;100.00;100570.25;5095016;27;45496;-88
2022/12/25 14:00:53;;;;;;;;;10.00;8.00;;;;;14.65;100.00;100549.28;5100664;27;45347;-88
2022/12/25 14:03:22;;;;;;;;;10.00;8.67;;;;;14.81;100.00;100576.69;5073283;27;48460;-86
2022/12/25 14:06:14;;;;;;;;;9.00;9.00;;;;;14.96;100.00;100598.69;5081216;27;45427;-88
2022/12/25 14:08:39;;;;;;;;;9.00;9.00;;;;;14.70;100.00;100546.78;5055205;27;45435;-86
2022/12/25 14:11:06;;;;;;;;;9.67;8.67;;;;;14.66;100.00;100556.25;5077957;27;45951;-88
2022/12/25 14:13:36;;;;;;;;;9.33;8.67;;;;;14.83;100.00;100594.16;5071668;28;47527;-87